createdAt,value
2017-07-18T00:00:39.994Z,11.33
2017-07-18T00:03:07.444Z,9.40
2017-07-18T00:05:35.015Z,7.67
2017-07-18T00:08:02.467Z,8.07
2017-07-18T00:10:30.022Z,8.33
2017-07-18T00:12:57.462Z,8.10
2017-07-18T00:15:24.927Z,7.73
2017-07-18T00:17:52.375Z,8.57
2017-07-18T00:20:19.847Z,9.60
2017-07-18T00:22:47.299Z,9.27
2017-07-18T00:25:14.765Z,12.47
2017-07-18T00:27:42.327Z,12.97
2017-07-18T00:30:09.854Z,10.10
2017-07-18T00:32:37.343Z,9.80
2017-07-18T00:35:04.798Z,11.60
2017-07-18T00:37:32.249Z,9.90
2017-07-18T00:39:59.703Z,8.30
2017-07-18T00:42:27.157Z,10.03
2017-07-18T00:44:54.623Z,11.83
2017-07-18T00:47:22.081Z,12.07
2017-07-18T00:49:49.639Z,11.67
2017-07-18T00:52:17.094Z,12.57
2017-07-18T00:54:44.550Z,9.00
2017-07-18T00:57:11.997Z,10.87
2017-07-18T00:59:39.575Z,10.70
2017-07-18T01:02:07.026Z,9.77
2017-07-18T01:04:34.574Z,9.30
2017-07-18T01:07:02.134Z,10.47
2017-07-18T01:09:29.589Z,22.90
2017-07-18T01:11:57.041Z,10.83
2017-07-18T01:14:24.508Z,11.30
2017-07-18T01:16:51.953Z,10.20
2017-07-18T01:19:19.514Z,9.43
2017-07-18T01:21:46.962Z,9.53
2017-07-18T01:24:14.439Z,13.20
2017-07-18T01:26:41.886Z,12.07
2017-07-18T01:29:09.342Z,10.60
2017-07-18T01:31:36.905Z,10.40
2017-07-18T01:34:04.466Z,8.60
2017-07-18T01:36:31.922Z,8.20
2017-07-18T01:38:59.369Z,9.00
2017-07-18T01:41:26.934Z,10.50
2017-07-18T01:43:54.497Z,7.57
2017-07-18T01:46:21.954Z,12.77
2017-07-18T01:48:49.400Z,10.23
2017-07-18T01:51:16.867Z,12.07
2017-07-18T01:53:44.317Z,11.07
2017-07-18T01:56:11.778Z,15.73
2017-07-18T01:58:39.337Z,14.30
2017-07-18T02:01:06.798Z,12.60
2017-07-18T02:03:34.350Z,13.27
2017-07-18T02:06:01.803Z,12.00
2017-07-18T02:08:29.265Z,15.67
2017-07-18T02:10:56.717Z,10.83
2017-07-18T02:13:24.200Z,12.20
2017-07-18T02:15:51.829Z,12.43
2017-07-18T02:18:19.401Z,9.97
2017-07-18T02:20:46.870Z,12.73
2017-07-18T02:23:14.330Z,11.53
2017-07-18T02:25:41.758Z,15.43
2017-07-18T02:28:09.252Z,12.80
2017-07-18T02:30:37.596Z,20.10
2017-07-18T02:33:05.042Z,13.10
2017-07-18T02:35:32.499Z,16.40
2017-07-18T02:37:59.949Z,10.60
2017-07-18T02:40:27.527Z,13.30
2017-07-18T02:42:54.983Z,10.67
2017-07-18T02:45:22.430Z,11.77
2017-07-18T02:47:49.885Z,12.70
2017-07-18T02:50:17.343Z,11.90
2017-07-18T02:52:44.902Z,12.30
2017-07-18T02:55:12.359Z,10.80
2017-07-18T02:57:39.817Z,12.03
2017-07-18T03:00:07.280Z,11.23
2017-07-18T03:02:34.802Z,12.77
2017-07-18T03:05:02.289Z,11.37
2017-07-18T03:07:29.761Z,10.50
2017-07-18T03:09:57.213Z,15.10
2017-07-18T03:12:24.755Z,13.17
2017-07-18T03:14:52.228Z,15.80
2017-07-18T03:17:19.678Z,13.90
2017-07-18T03:19:47.234Z,12.77
2017-07-18T03:22:14.802Z,16.97
2017-07-18T03:24:42.264Z,13.37
2017-07-18T03:27:09.719Z,12.30
2017-07-18T03:29:37.261Z,13.23
2017-07-18T03:32:04.834Z,13.90
2017-07-18T03:34:32.389Z,16.17
2017-07-18T03:37:00.638Z,15.03
2017-07-18T03:39:28.110Z,12.60
2017-07-18T03:41:55.675Z,11.50
2017-07-18T03:44:23.238Z,16.17
2017-07-18T03:46:50.790Z,15.80
2017-07-18T03:49:18.250Z,14.40
2017-07-18T03:51:45.714Z,14.83
2017-07-18T03:54:13.175Z,13.60
2017-07-18T03:56:41.410Z,14.30
2017-07-18T03:59:08.871Z,14.53
2017-07-18T04:01:36.325Z,17.67
2017-07-18T04:04:03.791Z,16.00
2017-07-18T04:06:31.251Z,20.80
2017-07-18T04:08:58.712Z,13.00
2017-07-18T04:11:26.274Z,13.80
2017-07-18T04:13:53.739Z,13.77
2017-07-18T04:16:21.286Z,16.63
2017-07-18T04:18:48.753Z,12.77
2017-07-18T04:21:16.301Z,20.00
2017-07-18T04:23:43.787Z,15.27
2017-07-18T04:26:12.035Z,15.43
2017-07-18T04:28:39.502Z,12.87
2017-07-18T04:31:06.945Z,15.90
2017-07-18T04:33:34.510Z,11.10
2017-07-18T04:36:01.966Z,13.37
2017-07-18T04:38:29.425Z,12.10
2017-07-18T04:40:57.692Z,14.83
2017-07-18T04:43:25.140Z,11.27
2017-07-18T04:45:52.710Z,12.50
2017-07-18T04:48:20.180Z,14.10
2017-07-18T04:50:47.633Z,14.80
2017-07-18T04:53:15.173Z,11.43
2017-07-18T04:55:42.633Z,14.03
2017-07-18T04:58:10.090Z,12.60
2017-07-18T05:00:37.542Z,13.17
2017-07-18T05:03:04.993Z,11.13
2017-07-18T05:05:32.570Z,13.83
2017-07-18T05:08:00.117Z,10.97
2017-07-18T05:10:27.670Z,11.50
2017-07-18T05:12:55.151Z,15.13
2017-07-18T05:15:22.696Z,14.20
2017-07-18T05:17:50.141Z,11.07
2017-07-18T05:20:17.708Z,13.00
2017-07-18T05:22:45.154Z,12.00
2017-07-18T05:25:12.610Z,14.07
2017-07-18T05:27:40.069Z,11.80
2017-07-18T05:30:07.630Z,11.23
2017-07-18T05:32:35.078Z,11.33
2017-07-18T05:35:02.547Z,12.90
2017-07-18T05:37:30.102Z,10.77
2017-07-18T05:39:57.557Z,8.97
2017-07-18T05:42:25.337Z,12.97
2017-07-18T05:44:53.590Z,11.70
2017-07-18T05:47:21.056Z,10.70
2017-07-18T05:49:48.490Z,9.80
2017-07-18T05:52:15.956Z,13.20
2017-07-18T05:54:43.417Z,10.43
2017-07-18T05:57:10.881Z,11.03
2017-07-18T05:59:38.333Z,10.20
2017-07-18T06:02:05.794Z,9.70
2017-07-18T06:04:33.244Z,9.60
2017-07-18T06:07:00.695Z,9.63
2017-07-18T06:09:28.145Z,8.40
2017-07-18T06:11:55.606Z,8.90
2017-07-18T06:14:23.081Z,8.30
2017-07-18T06:16:50.562Z,11.10
2017-07-18T06:19:18.780Z,10.63
2017-07-18T06:21:46.235Z,9.37
2017-07-18T06:24:13.691Z,9.67
2017-07-18T06:26:41.194Z,11.93
2017-07-18T06:29:08.638Z,14.30
2017-07-18T06:31:36.080Z,10.23
2017-07-18T06:34:03.641Z,8.73
2017-07-18T06:36:31.091Z,7.60
2017-07-18T06:38:58.542Z,8.40
2017-07-18T06:41:26.009Z,8.70
2017-07-18T06:43:53.568Z,9.40
2017-07-18T06:46:21.129Z,8.33
2017-07-18T06:48:48.695Z,10.30
2017-07-18T06:51:16.254Z,7.77
2017-07-18T06:53:43.706Z,10.00
2017-07-18T06:56:11.159Z,8.40
2017-07-18T06:58:38.608Z,8.93
2017-07-18T07:01:06.061Z,8.90
2017-07-18T07:03:33.534Z,8.93
2017-07-18T07:06:01.091Z,8.30
2017-07-18T07:08:28.554Z,10.00
2017-07-18T07:10:56.782Z,10.33
2017-07-18T07:13:24.239Z,8.30
2017-07-18T07:15:51.708Z,10.30
2017-07-18T07:18:19.200Z,9.60
2017-07-18T07:20:46.664Z,8.83
2017-07-18T07:23:14.114Z,8.37
2017-07-18T07:25:41.557Z,8.30
2017-07-18T07:28:09.028Z,7.97
2017-07-18T07:30:36.480Z,14.80
2017-07-18T07:33:03.934Z,12.23
2017-07-18T07:35:31.384Z,12.50
2017-07-18T07:37:58.946Z,13.70
2017-07-18T07:40:26.497Z,8.73
2017-07-18T07:42:54.054Z,10.67
2017-07-18T07:45:21.501Z,10.00
2017-07-18T07:47:48.978Z,13.97
2017-07-18T07:50:16.442Z,11.53
2017-07-18T07:52:43.890Z,8.90
2017-07-18T07:55:11.342Z,8.20
2017-07-18T07:57:38.894Z,12.37
2017-07-18T08:00:06.462Z,10.30
2017-07-18T08:02:34.020Z,10.07
2017-07-18T08:05:01.465Z,9.13
2017-07-18T08:07:28.926Z,11.37
2017-07-18T08:09:56.497Z,8.77
2017-07-18T08:12:23.950Z,8.67
2017-07-18T08:14:51.397Z,8.70
2017-07-18T08:17:18.842Z,9.13
2017-07-18T08:19:46.314Z,9.60
2017-07-18T08:22:13.760Z,8.00
2017-07-18T08:24:41.224Z,6.87
2017-07-18T08:27:08.672Z,12.47
2017-07-18T08:29:36.118Z,7.83
2017-07-18T08:32:03.586Z,6.43
2017-07-18T08:34:31.043Z,8.03
2017-07-18T08:36:58.498Z,7.87
2017-07-18T08:39:25.950Z,9.37
2017-07-18T08:41:53.399Z,7.20
2017-07-18T08:44:20.876Z,6.30
2017-07-18T08:46:48.433Z,6.80
2017-07-18T08:49:16.006Z,6.10
2017-07-18T08:51:43.558Z,6.20
2017-07-18T08:54:11.014Z,7.73
2017-07-18T08:56:38.469Z,5.27
2017-07-18T08:59:05.931Z,7.77
2017-07-18T09:01:33.395Z,5.90
2017-07-18T09:04:00.851Z,5.30
2017-07-18T09:06:28.297Z,4.60
2017-07-18T09:08:55.757Z,4.63
2017-07-18T09:11:23.213Z,6.50
2017-07-18T09:13:50.674Z,5.10
2017-07-18T09:16:18.117Z,5.50
2017-07-18T09:18:45.669Z,6.10
2017-07-18T09:21:13.113Z,5.70
2017-07-18T09:23:40.582Z,8.07
2017-07-18T09:26:08.147Z,7.20
2017-07-18T09:28:35.706Z,4.70
2017-07-18T09:31:03.162Z,4.37
2017-07-18T09:33:30.613Z,4.50
2017-07-18T09:35:58.175Z,5.27
2017-07-18T09:38:25.627Z,4.27
2017-07-18T09:40:53.083Z,2.60
2017-07-18T09:43:20.525Z,6.20
2017-07-18T09:45:47.981Z,2.80
2017-07-18T09:48:15.429Z,4.03
2017-07-18T09:50:42.906Z,3.27
2017-07-18T09:53:10.350Z,4.20
2017-07-18T09:55:37.826Z,3.77
2017-07-18T09:58:05.271Z,3.60
2017-07-18T10:03:00.298Z,2.53
2017-07-18T10:05:27.733Z,2.90
2017-07-18T10:07:55.270Z,2.90
2017-07-18T10:10:22.774Z,6.33
2017-07-18T10:12:50.322Z,2.47
2017-07-18T10:15:17.770Z,11.30
2017-07-18T10:17:45.333Z,3.00
2017-07-18T10:20:12.788Z,3.83
2017-07-18T10:22:40.346Z,2.20
2017-07-18T10:25:07.808Z,2.40
2017-07-18T10:27:35.265Z,3.43
2017-07-18T10:30:02.818Z,4.50
2017-07-18T10:32:30.382Z,2.30
2017-07-18T10:34:57.948Z,3.60
2017-07-18T10:37:25.493Z,3.50
2017-07-18T10:39:52.947Z,2.17
2017-07-18T10:42:20.414Z,4.23
2017-07-18T10:44:47.965Z,3.83
2017-07-18T10:47:15.415Z,3.23
2017-07-18T10:49:42.863Z,1.90
2017-07-18T10:52:10.318Z,2.60
2017-07-18T10:54:37.778Z,2.60
2017-07-18T10:57:05.226Z,4.63
2017-07-18T10:59:32.695Z,4.83
2017-07-18T11:02:00.234Z,2.40
2017-07-18T11:04:27.674Z,2.90
2017-07-18T11:06:55.186Z,3.30
2017-07-18T11:09:22.746Z,3.30
2017-07-18T11:11:50.201Z,3.20
2017-07-18T11:14:17.654Z,2.70
2017-07-18T11:16:45.107Z,3.07
2017-07-18T11:19:12.558Z,2.47
2017-07-18T11:21:40.013Z,2.87
2017-07-18T11:24:07.465Z,2.30
2017-07-18T11:26:34.911Z,2.40
2017-07-18T11:29:02.363Z,6.20
2017-07-18T11:31:29.827Z,3.30
2017-07-18T11:33:57.269Z,3.77
2017-07-18T11:36:24.765Z,3.20
2017-07-18T11:38:52.222Z,2.37
2017-07-18T11:41:19.770Z,2.70
2017-07-18T11:43:47.323Z,6.47
2017-07-18T11:46:14.761Z,6.60
2017-07-18T11:48:42.214Z,2.77
2017-07-18T11:51:09.653Z,2.50
2017-07-18T11:53:37.105Z,4.13
2017-07-18T11:56:04.561Z,2.60
2017-07-18T11:58:32.036Z,5.30
2017-07-18T12:00:59.520Z,2.30
2017-07-18T12:03:27.151Z,3.23
2017-07-18T12:05:55.574Z,2.70
2017-07-18T12:08:23.022Z,2.23
2017-07-18T12:10:50.686Z,3.97
2017-07-18T12:13:18.130Z,2.20
2017-07-18T12:15:45.585Z,4.50
2017-07-18T12:18:39.565Z,3.27
2017-07-18T12:21:07.035Z,2.43
2017-07-18T12:23:34.483Z,2.30
2017-07-18T12:26:01.939Z,3.40
2017-07-18T12:28:29.503Z,2.27
2017-07-18T12:30:56.975Z,3.50
2017-07-18T12:33:25.234Z,1.97
2017-07-18T12:35:52.791Z,2.30
2017-07-18T12:38:20.247Z,2.87
2017-07-18T12:40:47.690Z,2.97
2017-07-18T12:43:15.141Z,2.70
2017-07-18T12:45:42.589Z,1.73
2017-07-18T12:48:10.048Z,2.23
2017-07-18T12:50:37.522Z,2.13
2017-07-18T12:53:04.972Z,2.70
2017-07-18T12:55:32.453Z,1.80
2017-07-18T12:57:59.903Z,2.33
2017-07-18T13:00:27.346Z,2.17
2017-07-18T13:02:54.811Z,2.90
2017-07-18T13:05:22.361Z,3.40
2017-07-18T13:07:49.928Z,2.03
2017-07-18T13:10:17.373Z,2.17
2017-07-18T13:12:44.827Z,2.37
2017-07-18T13:15:12.277Z,2.80
2017-07-18T13:17:39.724Z,3.23
2017-07-18T13:20:07.186Z,3.37
2017-07-18T13:22:34.638Z,2.33
2017-07-18T13:25:02.090Z,4.13
2017-07-18T13:27:29.541Z,3.80
2017-07-18T13:29:57.025Z,2.20
2017-07-18T13:32:25.305Z,3.20
2017-07-18T13:34:52.859Z,2.27
2017-07-18T13:37:20.310Z,3.10
2017-07-18T13:39:47.763Z,2.10
2017-07-18T13:42:15.221Z,1.80
2017-07-18T13:44:42.666Z,4.23
2017-07-18T13:47:10.131Z,5.27
2017-07-18T13:49:38.398Z,2.77
2017-07-18T13:52:05.867Z,2.70
2017-07-18T13:54:33.314Z,2.17
2017-07-18T13:57:00.769Z,4.00
2017-07-18T13:59:28.243Z,3.23
2017-07-18T14:01:55.712Z,4.00
2017-07-18T14:04:23.161Z,2.17
2017-07-18T14:06:50.619Z,1.87
2017-07-18T14:09:18.081Z,1.80
2017-07-18T14:11:45.533Z,2.20
2017-07-18T14:14:12.985Z,1.90
2017-07-18T14:16:40.446Z,3.67
2017-07-18T14:19:07.914Z,4.27
2017-07-18T14:21:36.170Z,2.70
2017-07-18T14:24:03.628Z,2.57
2017-07-18T14:26:31.075Z,3.17
2017-07-18T14:28:58.535Z,2.33
2017-07-18T14:31:25.977Z,2.07
2017-07-18T14:33:53.451Z,1.97
2017-07-18T14:36:21.016Z,2.13
2017-07-18T14:38:48.569Z,1.63
2017-07-18T14:41:16.026Z,2.90
2017-07-18T14:43:43.587Z,2.10
2017-07-18T14:46:11.045Z,3.43
2017-07-18T14:48:38.489Z,2.10
2017-07-18T14:51:05.947Z,3.80
2017-07-18T14:53:33.401Z,2.33
2017-07-18T14:56:00.860Z,3.17
2017-07-18T14:58:28.301Z,4.43
2017-07-18T15:00:56.581Z,3.60
2017-07-18T15:03:24.151Z,5.00
2017-07-18T15:05:57.304Z,2.10
2017-07-18T15:08:24.760Z,4.07
2017-07-18T15:10:52.197Z,7.07
2017-07-18T15:13:19.659Z,5.20
2017-07-18T15:15:47.112Z,8.30
2017-07-18T15:18:14.567Z,1.87
2017-07-18T15:20:42.089Z,2.47
2017-07-18T15:23:09.566Z,2.53
2017-07-18T15:25:37.774Z,7.27
2017-07-18T15:28:05.276Z,2.20
2017-07-18T15:30:32.746Z,2.00
2017-07-18T15:33:00.994Z,2.57
2017-07-18T15:35:28.553Z,2.20
2017-07-18T15:37:55.993Z,2.00
2017-07-18T15:40:23.465Z,1.93
2017-07-18T15:42:50.906Z,2.17
2017-07-18T15:45:18.369Z,2.00
2017-07-18T15:47:45.822Z,2.80
2017-07-18T15:50:13.266Z,4.07
2017-07-18T15:52:40.745Z,3.67
2017-07-18T15:55:08.190Z,2.70
2017-07-18T15:57:35.661Z,4.00
2017-07-18T16:00:04.653Z,2.30
2017-07-18T16:02:32.209Z,3.00
2017-07-18T16:04:59.774Z,3.17
2017-07-18T16:07:27.224Z,1.97
2017-07-18T16:09:54.669Z,1.80
2017-07-18T16:12:22.129Z,2.23
2017-07-18T16:14:49.693Z,6.00
2017-07-18T16:17:17.157Z,1.87
2017-07-18T16:19:44.709Z,4.40
2017-07-18T16:22:12.153Z,1.60
2017-07-18T16:24:39.624Z,3.10
2017-07-18T16:27:07.069Z,2.00
2017-07-18T16:29:34.524Z,3.00
2017-07-18T16:32:01.996Z,2.30
2017-07-18T16:34:29.558Z,1.83
2017-07-18T16:36:57.005Z,2.10
2017-07-18T16:39:24.486Z,3.00
2017-07-18T16:41:51.932Z,3.10
2017-07-18T16:44:19.389Z,6.20
2017-07-18T16:46:46.834Z,4.00
2017-07-18T16:49:14.398Z,1.80
2017-07-18T16:51:41.855Z,2.90
2017-07-18T16:54:10.350Z,4.83
2017-07-18T16:56:37.811Z,4.90
2017-07-18T16:59:06.137Z,2.83
2017-07-18T17:01:33.626Z,3.70
2017-07-18T17:04:01.078Z,2.57
2017-07-18T17:06:28.543Z,3.60
2017-07-18T17:08:55.993Z,4.80
2017-07-18T17:11:23.462Z,2.60
2017-07-18T17:13:50.911Z,4.60
2017-07-18T17:16:18.362Z,2.77
2017-07-18T17:18:45.899Z,2.17
2017-07-18T17:21:13.378Z,4.13
2017-07-18T17:23:40.827Z,2.73
2017-07-18T17:26:08.269Z,3.03
2017-07-18T17:28:35.737Z,3.00
2017-07-18T17:31:03.178Z,2.97
2017-07-18T17:33:30.629Z,2.10
2017-07-18T17:35:58.114Z,2.93
2017-07-18T17:38:25.572Z,1.87
2017-07-18T17:40:53.031Z,1.87
2017-07-18T17:43:20.590Z,2.70
2017-07-18T17:45:48.032Z,3.50
2017-07-18T17:48:15.499Z,7.13
2017-07-18T17:50:42.941Z,15.30
2017-07-18T17:53:10.506Z,15.63
2017-07-18T17:55:38.058Z,3.40
2017-07-18T17:58:05.522Z,2.50
2017-07-18T18:00:32.980Z,5.73
2017-07-18T18:03:00.426Z,7.83
2017-07-18T18:05:28.005Z,2.10
2017-07-18T18:07:55.559Z,4.90
2017-07-18T18:10:23.010Z,6.20
2017-07-18T18:12:50.562Z,5.33
2017-07-18T18:15:18.117Z,7.13
2017-07-18T18:17:45.551Z,9.43
2017-07-18T18:20:13.015Z,7.20
2017-07-18T18:22:40.465Z,12.00
2017-07-18T18:25:07.940Z,4.77
2017-07-18T18:27:36.449Z,10.03
2017-07-18T18:30:04.701Z,10.60
2017-07-18T18:32:32.154Z,15.60
2017-07-18T18:34:59.613Z,9.53
2017-07-18T18:37:27.079Z,24.77
2017-07-18T18:39:54.530Z,11.70
2017-07-18T18:42:22.091Z,22.43
2017-07-18T18:44:49.646Z,9.30
2017-07-18T18:47:17.096Z,13.37
2017-07-18T18:49:44.571Z,9.90
2017-07-18T18:52:12.009Z,10.03
2017-07-18T18:54:39.470Z,11.43
2017-07-18T18:57:06.918Z,12.30
2017-07-18T18:59:34.383Z,5.43
2017-07-18T19:02:01.839Z,10.63
2017-07-18T19:04:29.309Z,12.83
2017-07-18T19:06:57.542Z,7.80
2017-07-18T19:09:25.027Z,18.60
2017-07-18T19:11:52.482Z,21.10
2017-07-18T19:14:19.935Z,17.30
2017-07-18T19:16:47.394Z,17.10
2017-07-18T19:19:14.849Z,20.97
2017-07-18T19:21:42.309Z,8.33
2017-07-18T19:24:09.924Z,7.97
2017-07-18T19:26:37.421Z,3.60
2017-07-18T19:29:04.976Z,7.40
2017-07-18T19:31:32.421Z,2.97
2017-07-18T19:33:59.892Z,2.40
2017-07-18T19:36:27.337Z,2.60
2017-07-18T19:38:54.816Z,5.73
2017-07-18T19:41:22.270Z,5.50
2017-07-18T19:43:49.726Z,3.40
2017-07-18T19:46:17.274Z,2.53
2017-07-18T19:48:44.742Z,3.57
2017-07-18T19:51:12.188Z,2.70
2017-07-18T19:53:39.629Z,3.27
2017-07-18T19:56:07.101Z,2.93
2017-07-18T19:58:34.549Z,4.23
2017-07-18T20:01:02.013Z,3.07
2017-07-18T20:03:29.469Z,4.60
2017-07-18T20:05:56.922Z,6.03
2017-07-18T20:08:24.389Z,9.40
2017-07-18T20:10:51.849Z,3.13
2017-07-18T20:13:19.397Z,3.03
2017-07-18T20:15:46.966Z,2.60
2017-07-18T20:18:14.523Z,8.03
2017-07-18T20:20:42.083Z,6.67
2017-07-18T20:23:09.542Z,3.90
2017-07-18T20:25:36.990Z,2.63
2017-07-18T20:28:04.560Z,7.03
2017-07-18T20:30:32.002Z,3.93
2017-07-18T20:32:59.459Z,4.90
2017-07-18T20:35:26.906Z,2.50
2017-07-18T20:37:54.364Z,3.70
2017-07-18T20:40:21.805Z,3.73
2017-07-18T20:42:49.274Z,8.13
2017-07-18T20:45:16.718Z,4.90
2017-07-18T20:47:44.177Z,4.80
2017-07-18T20:50:11.639Z,3.77
2017-07-18T20:52:39.086Z,3.60
2017-07-18T20:55:06.551Z,3.00
2017-07-18T20:57:33.993Z,3.87
2017-07-18T21:00:01.458Z,4.23
2017-07-18T21:02:28.927Z,5.70
2017-07-18T21:04:56.383Z,4.43
2017-07-18T21:07:23.829Z,2.97
2017-07-18T21:09:51.288Z,7.30
2017-07-18T21:12:18.741Z,6.03
2017-07-18T21:14:46.200Z,2.87
2017-07-18T21:17:13.662Z,12.07
2017-07-18T21:19:41.104Z,5.23
2017-07-18T21:22:08.575Z,10.73
2017-07-18T21:24:36.029Z,15.07
2017-07-18T21:27:03.598Z,13.10
2017-07-18T21:29:31.049Z,11.73
2017-07-18T21:31:58.505Z,13.60
2017-07-18T21:34:25.962Z,10.60
2017-07-18T21:36:53.531Z,7.67
2017-07-18T21:39:20.986Z,4.30
2017-07-18T21:41:48.645Z,5.93
2017-07-18T21:44:16.101Z,7.20
2017-07-18T21:46:43.561Z,6.80
2017-07-18T21:49:11.018Z,3.63
2017-07-18T21:51:38.573Z,3.43
2017-07-18T21:54:06.029Z,6.33
2017-07-18T21:56:33.479Z,4.93
2017-07-18T21:59:01.034Z,4.87
2017-07-18T22:02:37.577Z,8.57
2017-07-18T22:05:05.082Z,6.93
2017-07-18T22:07:32.528Z,6.03
2017-07-18T22:10:00.086Z,13.33
2017-07-18T22:12:27.642Z,7.27
2017-07-18T22:14:55.101Z,3.87
2017-07-18T22:17:22.558Z,4.50
2017-07-18T22:19:50.014Z,7.30
2017-07-18T22:22:17.462Z,6.43
2017-07-18T22:24:44.921Z,7.37
2017-07-18T22:27:12.384Z,7.20
2017-07-18T22:29:39.846Z,4.27
2017-07-18T22:32:07.300Z,5.53
2017-07-18T22:34:34.763Z,8.13
2017-07-18T22:37:02.211Z,3.73
2017-07-18T22:39:29.674Z,5.77
2017-07-18T22:41:57.125Z,3.87
2017-07-18T22:44:24.586Z,7.03
2017-07-18T22:46:52.048Z,5.63
2017-07-18T22:49:19.508Z,7.73
2017-07-18T22:51:46.967Z,6.27
2017-07-18T22:54:15.182Z,5.43
2017-07-18T22:56:42.646Z,5.37
2017-07-18T22:59:10.126Z,4.27
2017-07-18T23:01:37.682Z,8.60
2017-07-18T23:04:05.137Z,5.53
2017-07-18T23:06:32.586Z,5.37
2017-07-18T23:09:00.037Z,7.23
2017-07-18T23:11:27.491Z,7.07
2017-07-18T23:13:54.946Z,4.43
2017-07-18T23:16:22.421Z,4.10
2017-07-18T23:18:49.882Z,4.30
2017-07-18T23:21:17.443Z,7.23
2017-07-18T23:23:44.907Z,4.50
2017-07-18T23:26:12.349Z,7.03
2017-07-18T23:28:39.918Z,5.67
2017-07-18T23:31:07.366Z,4.50
2017-07-18T23:33:34.834Z,4.70
2017-07-18T23:36:02.290Z,5.63
2017-07-18T23:38:29.733Z,5.47
2017-07-18T23:40:57.202Z,4.90
2017-07-18T23:43:24.660Z,7.10
2017-07-18T23:45:52.114Z,4.57
2017-07-18T23:48:19.571Z,6.03
2017-07-18T23:50:47.025Z,4.93
2017-07-18T23:53:14.469Z,5.00
2017-07-18T23:55:41.935Z,7.07
2017-07-18T23:58:09.402Z,10.03
